Statsraad Lehmkuhl — LDRG — position and weather

sailwx.info

Track history (hours):
 
Tides and Currents Weather Stations Pressure Air Temp Water Temp Dewpoint Dewpoint Depression Visibility Wind Speed Wind Dir Waves Ship Positions

Statsraad Lehmkuhl (Norway)

Ship's website: http://www.lehmkuhl.no/eng/index.cfm

Last reported at 2017-Apr-26 11:30 UTC. Time now 2017-Apr-26 11:46 UTC.
Position N 60°24' E 005°19'.

Length 85 m; draft 5.2 m.

Type: Sailing vessel. MMSI: 258113000.

Date/timePositionNaut miles runAvg speedWind from/ knotsBaromVisibWave heightAir tempDewpointWater temp
2017-Apr-26 11:30N 60°24' E 005°19'0 0.0
2017-Apr-26 11:00N 60°24' E 005°19'0 0.0
2017-Apr-26 10:30N 60°24' E 005°19'0 0.0
2017-Apr-26 10:00N 60°24' E 005°19'0 0.0
2017-Apr-26 09:28N 60°24' E 005°19'0 0.0
2017-Apr-26 08:58N 60°24' E 005°19'0 0.0
2017-Apr-26 08:28N 60°24' E 005°19'0 0.0
2017-Apr-26 07:59N 60°24' E 005°19'0 0.0
2017-Apr-26 07:29N 60°24' E 005°19'0 0.0
2017-Apr-26 06:59N 60°24' E 005°19'0 0.0
2017-Apr-26 06:30N 60°24' E 005°19'0 0.0
2017-Apr-26 06:00N 60°24' E 005°19'0 0.0
2017-Apr-26 05:30N 60°24' E 005°19'0 0.0
2017-Apr-26 05:00N 60°24' E 005°19'0 0.0
2017-Apr-26 04:30N 60°24' E 005°19'0 0.0
2017-Apr-26 04:01N 60°24' E 005°19'0 0.0
2017-Apr-26 03:30N 60°24' E 005°19'0 0.0
2017-Apr-26 03:00N 60°24' E 005°19'0 0.0
2017-Apr-26 02:30N 60°24' E 005°19'0 0.0
2017-Apr-26 02:00N 60°24' E 005°19'0 0.0
2017-Apr-26 01:31N 60°24' E 005°19'0 0.0
2017-Apr-26 01:00N 60°24' E 005°19'0 0.0
2017-Apr-26 00:30N 60°24' E 005°19'0 0.0
2017-Apr-26 00:00N 60°24' E 005°19'0 0.0
2017-Apr-25 23:31N 60°24' E 005°19'0 0.0
2017-Apr-25 23:00N 60°24' E 005°19'0 0.0
2017-Apr-25 22:30N 60°24' E 005°19'0 0.0
2017-Apr-25 22:00N 60°24' E 005°19'0 0.0
2017-Apr-25 21:30N 60°24' E 005°19'0 0.0
2017-Apr-25 21:00N 60°24' E 005°19'0 0.0
2017-Apr-25 20:30N 60°24' E 005°19'0 0.0
2017-Apr-25 20:01N 60°24' E 005°19'0 0.0
2017-Apr-25 19:30N 60°24' E 005°19'0 0.0
2017-Apr-25 19:00N 60°24' E 005°19'0 0.0
2017-Apr-25 18:31N 60°24' E 005°19'0 0.0
2017-Apr-25 18:00N 60°24' E 005°19'0 0.0
2017-Apr-25 17:30N 60°24' E 005°19'0 0.0
2017-Apr-25 17:00N 60°24' E 005°19'0 0.0
2017-Apr-25 16:30N 60°24' E 005°19'0 0.0
2017-Apr-25 16:00N 60°24' E 005°19'0 0.0
2017-Apr-25 15:30N 60°24' E 005°19'0 0.0
2017-Apr-25 15:00N 60°24' E 005°19'0 0.0
2017-Apr-25 14:30N 60°24' E 005°19'0 0.0
2017-Apr-25 13:30N 60°24' E 005°19'0 0.0
2017-Apr-25 13:00N 60°24' E 005°19'0 0.0
2017-Apr-25 12:30N 60°24' E 005°19'0 0.0
2017-Apr-25 12:00N 60°24' E 005°19'0 0.0
2017-Apr-25 11:30N 60°24' E 005°19'0 0.0
2017-Apr-25 11:01N 60°24' E 005°19'0 0.0
2017-Apr-25 10:30N 60°24' E 005°19'0 0.0
2017-Apr-25 10:00N 60°24' E 005°19'0 0.0
2017-Apr-25 09:30N 60°24' E 005°19'0 0.2
2017-Apr-25 09:00N 60°24' E 005°19'0 0.0
2017-Apr-25 08:31N 60°24' E 005°19'0 0.0
2017-Apr-25 08:00N 60°24' E 005°19'1 2.5
2017-Apr-25 07:30N 60°24' E 005°17'3 5.8
2017-Apr-25 07:00N 60°23' E 005°11'3 5.4
2017-Apr-25 06:30N 60°20' E 005°11'4 7.5
2017-Apr-25 06:01N 60°17' E 005°11'4 7.9
2017-Apr-25 05:30N 60°13' E 005°11'4 7.5
2017-Apr-25 05:01N 60°10' E 005°06'5 9.4
2017-Apr-25 04:30N 60°08' E 004°57'5 9.7
2017-Apr-25 04:00N 60°07' E 004°48'5 9.3
2017-Apr-25 03:29N 60°05' E 004°39'  
2017-Apr-20 16:55N 60°53' E 004°16'3 6.2
2017-Apr-20 16:30N 60°53' E 004°21'2 4.9
2017-Apr-20 16:00N 60°52' E 004°26'3 5.2
2017-Apr-20 15:29N 60°52' E 004°32'2 4.7
2017-Apr-20 15:00N 60°52' E 004°36'2 4.8
2017-Apr-20 14:30N 60°51' E 004°41'7 7.3
2017-Apr-20 13:29N 60°45' E 004°48'4 7.9
2017-Apr-20 13:00N 60°41' E 004°50'4 7.9
2017-Apr-20 12:30N 60°37' E 004°53'4 7.8
2017-Apr-20 12:00N 60°34' E 004°56'4 7.5
2017-Apr-20 11:30N 60°30' E 004°59'4 7.6
2017-Apr-20 11:00N 60°27' E 005°02'3 6.2
2017-Apr-20 10:30N 60°24' E 005°06'3 5.8
2017-Apr-20 09:59N 60°24' E 005°12'3 6.2
2017-Apr-20 09:30N 60°24' E 005°18'1 1.2
2017-Apr-20 08:59N 60°24' E 005°19'0 0.0
2017-Apr-20 08:29N 60°24' E 005°19'0 0.0
2017-Apr-20 07:59N 60°24' E 005°19'0 0.0
2017-Apr-20 07:30N 60°24' E 005°19'0 0.0
2017-Apr-20 07:00N 60°24' E 005°19'0 0.0
2017-Apr-20 06:30N 60°24' E 005°19'0 0.0
2017-Apr-20 05:58N 60°24' E 005°19'0 0.0
2017-Apr-20 05:28N 60°24' E 005°19'0 0.0
2017-Apr-20 04:59N 60°24' E 005°19'0 0.0
2017-Apr-20 04:29N 60°24' E 005°19'0 0.0
2017-Apr-20 03:59N 60°24' E 005°19'0 0.0
2017-Apr-20 03:30N 60°24' E 005°19'0 0.0
2017-Apr-20 03:00N 60°24' E 005°19'0 0.0
2017-Apr-20 02:30N 60°24' E 005°19'0 0.0
2017-Apr-20 02:01N 60°24' E 005°19'0 0.0
2017-Apr-20 01:28N 60°24' E 005°19'0 0.0
2017-Apr-20 00:58N 60°24' E 005°19'0 0.0
2017-Apr-20 00:29N 60°24' E 005°19'0 0.0
2017-Apr-19 23:59N 60°24' E 005°19'0 0.0
2017-Apr-19 23:29N 60°24' E 005°19'0 0.0
2017-Apr-19 23:00N 60°24' E 005°19'0 0.0
2017-Apr-19 22:30N 60°24' E 005°19'0 0.0
2017-Apr-19 22:00N 60°24' E 005°19'0 0.0
2017-Apr-19 21:28N 60°24' E 005°19'0 0.0
2017-Apr-19 20:58N 60°24' E 005°19'0 0.0
2017-Apr-19 20:28N 60°24' E 005°19'0 0.0
2017-Apr-19 19:59N 60°24' E 005°19'0 0.0
2017-Apr-19 19:29N 60°24' E 005°19'0 0.0
2017-Apr-19 18:59N 60°24' E 005°19'0 0.0
2017-Apr-19 18:30N 60°24' E 005°19'0 0.0
2017-Apr-19 18:00N 60°24' E 005°19'0 0.0
2017-Apr-19 17:30N 60°24' E 005°19'0 0.0
2017-Apr-19 16:58N 60°24' E 005°19'0 0.0
2017-Apr-19 16:28N 60°24' E 005°19'0 0.0
2017-Apr-19 15:58N 60°24' E 005°19'0 0.0
2017-Apr-19 15:29N 60°24' E 005°19'0 0.0
2017-Apr-19 14:59N 60°24' E 005°19'0 0.0
2017-Apr-19 14:29N 60°24' E 005°19'0 0.0
2017-Apr-19 14:00N 60°24' E 005°19'0 0.0
2017-Apr-19 13:30N 60°24' E 005°19'0 0.0
2017-Apr-19 13:00N 60°24' E 005°19'0 0.0
2017-Apr-19 12:28N 60°24' E 005°19'0 0.0
2017-Apr-19 11:58N 60°24' E 005°19'0 0.0
2017-Apr-19 11:28N 60°24' E 005°19'0 0.0
2017-Apr-19 10:53N 60°24' E 005°19'0 0.0
2017-Apr-19 10:29N 60°24' E 005°19'0 0.0
2017-Apr-19 09:59N 60°24' E 005°19'0 0.0
2017-Apr-19 09:30N 60°24' E 005°19'0 0.0
2017-Apr-19 09:00N 60°24' E 005°19'0 0.0
2017-Apr-19 08:30N 60°24' E 005°19'0 0.0
2017-Apr-19 07:58N 60°24' E 005°19'0 0.0
2017-Apr-19 07:28N 60°24' E 005°19'0 0.0
2017-Apr-19 06:58N 60°24' E 005°19'0 0.0
2017-Apr-19 06:29N 60°24' E 005°19'0 0.0
2017-Apr-19 05:59N 60°24' E 005°19'0 0.0
2017-Apr-19 05:29N 60°24' E 005°19'0 0.0
2017-Apr-19 05:00N 60°24' E 005°19'0 0.0
2017-Apr-19 04:30N 60°24' E 005°19'0 0.0
2017-Apr-19 04:00N 60°24' E 005°19'0 0.0
2017-Apr-19 03:28N 60°24' E 005°19'0 0.0
2017-Apr-19 02:58N 60°24' E 005°19'0 0.0
2017-Apr-19 02:28N 60°24' E 005°19'0 0.0
2017-Apr-19 01:59N 60°24' E 005°19'0 0.0
2017-Apr-19 01:29N 60°24' E 005°19'0 0.0
2017-Apr-19 00:59N 60°24' E 005°19'0 0.0
2017-Apr-19 00:30N 60°24' E 005°19'0 0.0
2017-Apr-19 00:00N 60°24' E 005°19'0 0.0
2017-Apr-18 23:30N 60°24' E 005°19'0 0.0
2017-Apr-18 22:58N 60°24' E 005°19'0 0.0
2017-Apr-18 22:28N 60°24' E 005°19'0 0.0
2017-Apr-18 21:58N 60°24' E 005°19'0 0.0
2017-Apr-18 21:29N 60°24' E 005°19'0 0.0
2017-Apr-18 20:59N 60°24' E 005°19'0 0.0
2017-Apr-18 20:26N 60°24' E 005°19'0 0.0
2017-Apr-18 20:00N 60°24' E 005°19'0 0.0
2017-Apr-18 19:30N 60°24' E 005°19'0 0.0
2017-Apr-18 19:00N 60°24' E 005°19'0 0.0
2017-Apr-18 18:28N 60°24' E 005°19'0 0.0
2017-Apr-18 17:58N 60°24' E 005°19'0 0.0
2017-Apr-18 17:28N 60°24' E 005°19'0 0.0
2017-Apr-18 16:59N 60°24' E 005°19'0 0.0
2017-Apr-18 16:29N 60°24' E 005°19'0 0.0
2017-Apr-18 15:59N 60°24' E 005°19'0 0.0
2017-Apr-18 15:30N 60°24' E 005°19'0 0.0
2017-Apr-18 15:00N 60°24' E 005°19'0 0.0
2017-Apr-18 14:30N 60°24' E 005°19'0 0.0
2017-Apr-18 13:28N 60°24' E 005°19'0 0.0
2017-Apr-18 12:58N 60°24' E 005°19'0 0.0
2017-Apr-18 12:29N 60°24' E 005°19'0 0.0
2017-Apr-18 11:59N 60°24' E 005°19'0 0.0
2017-Apr-18 11:29N 60°24' E 005°19'0 0.0
2017-Apr-18 11:00N 60°24' E 005°19'0 0.0
2017-Apr-18 10:30N 60°24' E 005°19'0 0.0
2017-Apr-18 10:00N 60°24' E 005°19'0 0.0
2017-Apr-18 09:28N 60°24' E 005°19'0 0.0
2017-Apr-18 08:58N 60°24' E 005°19'0 0.0
2017-Apr-18 08:28N 60°24' E 005°19'0 0.0
2017-Apr-18 07:59N 60°24' E 005°19'0 0.0
2017-Apr-18 07:29N 60°24' E 005°19'0 0.0
2017-Apr-18 06:59N 60°24' E 005°19'0 0.0
2017-Apr-18 06:30N 60°24' E 005°19'0 0.0
2017-Apr-18 06:00N 60°24' E 005°19'0 0.0
2017-Apr-18 05:24N 60°24' E 005°19'0 0.0
2017-Apr-18 04:58N 60°24' E 005°19'0 0.0
2017-Apr-18 04:28N 60°24' E 005°19'0 0.0
2017-Apr-18 03:58N 60°24' E 005°19'0 0.0
2017-Apr-18 03:29N 60°24' E 005°19'0 0.0
2017-Apr-18 02:59N 60°24' E 005°19'0 0.0
2017-Apr-18 02:29N 60°24' E 005°19'0 0.0
2017-Apr-18 02:00N 60°24' E 005°19'0 0.0
2017-Apr-18 01:30N 60°24' E 005°19'0 0.0
2017-Apr-18 01:00N 60°24' E 005°19'0 0.0
2017-Apr-18 00:28N 60°24' E 005°19'0 0.0
2017-Apr-17 23:58N 60°24' E 005°19'0 0.0
2017-Apr-17 23:28N 60°24' E 005°19'0 0.0
2017-Apr-17 22:59N 60°24' E 005°19'0 0.0
2017-Apr-17 22:29N 60°24' E 005°19'0 0.0
2017-Apr-17 21:59N 60°24' E 005°19'0 0.0
2017-Apr-17 21:30N 60°24' E 005°19'0 0.0
2017-Apr-17 21:00N 60°24' E 005°19'0 0.0
2017-Apr-17 20:30N 60°24' E 005°19'0 0.0
2017-Apr-17 19:58N 60°24' E 005°19'0 0.0
2017-Apr-17 19:28N 60°24' E 005°19'0 0.0
2017-Apr-17 18:58N 60°24' E 005°19'0 0.0
2017-Apr-17 18:29N 60°24' E 005°19'0 0.0
2017-Apr-17 17:59N 60°24' E 005°19'0 0.0
2017-Apr-17 17:29N 60°24' E 005°19'0 0.0
2017-Apr-17 17:00N 60°24' E 005°19'0 0.0
2017-Apr-17 16:30N 60°24' E 005°19'0 0.0
2017-Apr-17 16:00N 60°24' E 005°19'0 0.0
2017-Apr-17 15:28N 60°24' E 005°19'0 0.0
2017-Apr-17 14:58N 60°24' E 005°19'0 0.0
2017-Apr-17 14:28N 60°24' E 005°19'0 0.0
2017-Apr-17 13:29N 60°24' E 005°19'0 0.0
2017-Apr-17 12:59N 60°24' E 005°19'0 0.0
2017-Apr-17 12:30N 60°24' E 005°19'0 0.0
2017-Apr-17 11:57N 60°24' E 005°19'0 0.0
2017-Apr-17 11:30N 60°24' E 005°19'0 0.0
2017-Apr-17 10:58N 60°24' E 005°19'0 0.0
2017-Apr-17 10:28N 60°24' E 005°19'0 0.0
2017-Apr-17 09:58N 60°24' E 005°19'0 0.0
2017-Apr-17 09:29N 60°24' E 005°19'0 0.0
2017-Apr-17 08:59N 60°24' E 005°19'0 0.0
2017-Apr-17 08:29N 60°24' E 005°19'0 0.0
2017-Apr-17 08:00N 60°24' E 005°19'0 0.0
2017-Apr-17 07:30N 60°24' E 005°19'0 0.0
2017-Apr-17 07:00N 60°24' E 005°19'0 0.0
2017-Apr-17 06:28N 60°24' E 005°19'0 0.0
2017-Apr-17 05:58N 60°24' E 005°19'0 0.0
2017-Apr-17 05:28N 60°24' E 005°19'0 0.0
2017-Apr-17 04:59N 60°24' E 005°19'0 0.0
2017-Apr-17 04:29N 60°24' E 005°19'0 0.0
2017-Apr-17 03:59N 60°24' E 005°19'0 0.0
2017-Apr-17 03:30N 60°24' E 005°19'0 0.0
2017-Apr-17 03:00N 60°24' E 005°19'0 0.0
2017-Apr-17 02:30N 60°24' E 005°19'0 0.0
2017-Apr-17 01:58N 60°24' E 005°19'0 0.0
2017-Apr-17 01:28N 60°24' E 005°19'0 0.0
2017-Apr-17 00:58N 60°24' E 005°19'0 0.0
2017-Apr-17 00:29N 60°24' E 005°19'0 0.0
2017-Apr-16 23:59N 60°24' E 005°19'0 0.0
2017-Apr-16 23:29N 60°24' E 005°19'0 0.0
2017-Apr-16 23:00N 60°24' E 005°19'0 0.0
2017-Apr-16 22:27N 60°24' E 005°19'0 0.0
2017-Apr-16 22:00N 60°24' E 005°19'0 0.0
2017-Apr-16 21:28N 60°24' E 005°19'0 0.0
2017-Apr-16 20:58N 60°24' E 005°19'0 0.0
2017-Apr-16 20:26N 60°24' E 005°19'0 0.0
2017-Apr-16 19:59N 60°24' E 005°19'0 0.0
2017-Apr-16 19:29N 60°24' E 005°19'0 0.0
2017-Apr-16 18:59N 60°24' E 005°19'0 0.0
2017-Apr-16 18:30N 60°24' E 005°19'0 0.0
2017-Apr-16 18:00N 60°24' E 005°19'0 0.0
2017-Apr-16 17:31N 60°24' E 005°19'0 0.0
2017-Apr-16 16:58N 60°24' E 005°19'0 0.0
2017-Apr-16 16:28N 60°24' E 005°19'0 0.0
2017-Apr-16 15:59N 60°24' E 005°19'0 0.0
2017-Apr-16 15:29N 60°24' E 005°19'0 0.0
2017-Apr-16 14:59N 60°24' E 005°19'0 0.0
2017-Apr-16 14:00N 60°24' E 005°19'0 0.0
2017-Apr-16 13:30N 60°24' E 005°19'0 0.0
2017-Apr-16 13:01N 60°24' E 005°19'0 0.0
2017-Apr-16 12:28N 60°24' E 005°19'0 0.0
2017-Apr-16 11:58N 60°24' E 005°19'  
Track history (hours):
 
Tides and Currents Weather Stations Pressure Air Temp Water Temp Dewpoint Dewpoint Depression Visibility Wind Speed Wind Dir Waves Ship Positions

Statsraad Lehmkuhl (Norway)

Ship's website: http://www.lehmkuhl.no/eng/index.cfm

Last reported at 2017-Apr-26 11:30 UTC. Time now 2017-Apr-26 11:46 UTC.
Position N 60°24' E 005°19'.

Length 85 m; draft 5.2 m.

Type: Sailing vessel. MMSI: 258113000.

Date/timePositionNaut miles runAvg speedWind from/ knotsBaromVisibWave heightAir tempDewpointWater temp
2017-Apr-26 11:30N 60°24' E 005°19'0 0.0
2017-Apr-26 11:00N 60°24' E 005°19'0 0.0
2017-Apr-26 10:30N 60°24' E 005°19'0 0.0
2017-Apr-26 10:00N 60°24' E 005°19'0 0.0
2017-Apr-26 09:28N 60°24' E 005°19'0 0.0
2017-Apr-26 08:58N 60°24' E 005°19'0 0.0
2017-Apr-26 08:28N 60°24' E 005°19'0 0.0
2017-Apr-26 07:59N 60°24' E 005°19'0 0.0
2017-Apr-26 07:29N 60°24' E 005°19'0 0.0
2017-Apr-26 06:59N 60°24' E 005°19'0 0.0
2017-Apr-26 06:30N 60°24' E 005°19'0 0.0
2017-Apr-26 06:00N 60°24' E 005°19'0 0.0
2017-Apr-26 05:30N 60°24' E 005°19'0 0.0
2017-Apr-26 05:00N 60°24' E 005°19'0 0.0
2017-Apr-26 04:30N 60°24' E 005°19'0 0.0
2017-Apr-26 04:01N 60°24' E 005°19'0 0.0
2017-Apr-26 03:30N 60°24' E 005°19'0 0.0
2017-Apr-26 03:00N 60°24' E 005°19'0 0.0
2017-Apr-26 02:30N 60°24' E 005°19'0 0.0
2017-Apr-26 02:00N 60°24' E 005°19'0 0.0
2017-Apr-26 01:31N 60°24' E 005°19'0 0.0
2017-Apr-26 01:00N 60°24' E 005°19'0 0.0
2017-Apr-26 00:30N 60°24' E 005°19'0 0.0
2017-Apr-26 00:00N 60°24' E 005°19'0 0.0
2017-Apr-25 23:31N 60°24' E 005°19'0 0.0
2017-Apr-25 23:00N 60°24' E 005°19'0 0.0
2017-Apr-25 22:30N 60°24' E 005°19'0 0.0
2017-Apr-25 22:00N 60°24' E 005°19'0 0.0
2017-Apr-25 21:30N 60°24' E 005°19'0 0.0
2017-Apr-25 21:00N 60°24' E 005°19'0 0.0
2017-Apr-25 20:30N 60°24' E 005°19'0 0.0
2017-Apr-25 20:01N 60°24' E 005°19'0 0.0
2017-Apr-25 19:30N 60°24' E 005°19'0 0.0
2017-Apr-25 19:00N 60°24' E 005°19'0 0.0
2017-Apr-25 18:31N 60°24' E 005°19'0 0.0
2017-Apr-25 18:00N 60°24' E 005°19'0 0.0
2017-Apr-25 17:30N 60°24' E 005°19'0 0.0
2017-Apr-25 17:00N 60°24' E 005°19'0 0.0
2017-Apr-25 16:30N 60°24' E 005°19'0 0.0
2017-Apr-25 16:00N 60°24' E 005°19'0 0.0
2017-Apr-25 15:30N 60°24' E 005°19'0 0.0
2017-Apr-25 15:00N 60°24' E 005°19'0 0.0
2017-Apr-25 14:30N 60°24' E 005°19'0 0.0
2017-Apr-25 13:30N 60°24' E 005°19'0 0.0
2017-Apr-25 13:00N 60°24' E 005°19'0 0.0
2017-Apr-25 12:30N 60°24' E 005°19'0 0.0
2017-Apr-25 12:00N 60°24' E 005°19'0 0.0
2017-Apr-25 11:30N 60°24' E 005°19'0 0.0
2017-Apr-25 11:01N 60°24' E 005°19'0 0.0
2017-Apr-25 10:30N 60°24' E 005°19'0 0.0
2017-Apr-25 10:00N 60°24' E 005°19'0 0.0
2017-Apr-25 09:30N 60°24' E 005°19'0 0.2
2017-Apr-25 09:00N 60°24' E 005°19'0 0.0
2017-Apr-25 08:31N 60°24' E 005°19'0 0.0
2017-Apr-25 08:00N 60°24' E 005°19'1 2.5
2017-Apr-25 07:30N 60°24' E 005°17'3 5.8
2017-Apr-25 07:00N 60°23' E 005°11'3 5.4
2017-Apr-25 06:30N 60°20' E 005°11'4 7.5
2017-Apr-25 06:01N 60°17' E 005°11'4 7.9
2017-Apr-25 05:30N 60°13' E 005°11'4 7.5
2017-Apr-25 05:01N 60°10' E 005°06'5 9.4
2017-Apr-25 04:30N 60°08' E 004°57'5 9.7
2017-Apr-25 04:00N 60°07' E 004°48'5 9.3
2017-Apr-25 03:29N 60°05' E 004°39'  
2017-Apr-20 16:55N 60°53' E 004°16'3 6.2
2017-Apr-20 16:30N 60°53' E 004°21'2 4.9
2017-Apr-20 16:00N 60°52' E 004°26'3 5.2
2017-Apr-20 15:29N 60°52' E 004°32'2 4.7
2017-Apr-20 15:00N 60°52' E 004°36'2 4.8
2017-Apr-20 14:30N 60°51' E 004°41'7 7.3
2017-Apr-20 13:29N 60°45' E 004°48'4 7.9
2017-Apr-20 13:00N 60°41' E 004°50'4 7.9
2017-Apr-20 12:30N 60°37' E 004°53'4 7.8
2017-Apr-20 12:00N 60°34' E 004°56'4 7.5
2017-Apr-20 11:30N 60°30' E 004°59'4 7.6
2017-Apr-20 11:00N 60°27' E 005°02'3 6.2
2017-Apr-20 10:30N 60°24' E 005°06'3 5.8
2017-Apr-20 09:59N 60°24' E 005°12'3 6.2
2017-Apr-20 09:30N 60°24' E 005°18'1 1.2
2017-Apr-20 08:59N 60°24' E 005°19'0 0.0
2017-Apr-20 08:29N 60°24' E 005°19'0 0.0
2017-Apr-20 07:59N 60°24' E 005°19'0 0.0
2017-Apr-20 07:30N 60°24' E 005°19'0 0.0
2017-Apr-20 07:00N 60°24' E 005°19'0 0.0
2017-Apr-20 06:30N 60°24' E 005°19'0 0.0
2017-Apr-20 05:58N 60°24' E 005°19'0 0.0
2017-Apr-20 05:28N 60°24' E 005°19'0 0.0
2017-Apr-20 04:59N 60°24' E 005°19'0 0.0
2017-Apr-20 04:29N 60°24' E 005°19'0 0.0
2017-Apr-20 03:59N 60°24' E 005°19'0 0.0
2017-Apr-20 03:30N 60°24' E 005°19'0 0.0
2017-Apr-20 03:00N 60°24' E 005°19'0 0.0
2017-Apr-20 02:30N 60°24' E 005°19'0 0.0
2017-Apr-20 02:01N 60°24' E 005°19'0 0.0
2017-Apr-20 01:28N 60°24' E 005°19'0 0.0
2017-Apr-20 00:58N 60°24' E 005°19'0 0.0
2017-Apr-20 00:29N 60°24' E 005°19'0 0.0
2017-Apr-19 23:59N 60°24' E 005°19'0 0.0
2017-Apr-19 23:29N 60°24' E 005°19'0 0.0
2017-Apr-19 23:00N 60°24' E 005°19'0 0.0
2017-Apr-19 22:30N 60°24' E 005°19'0 0.0
2017-Apr-19 22:00N 60°24' E 005°19'0 0.0
2017-Apr-19 21:28N 60°24' E 005°19'0 0.0
2017-Apr-19 20:58N 60°24' E 005°19'0 0.0
2017-Apr-19 20:28N 60°24' E 005°19'0 0.0
2017-Apr-19 19:59N 60°24' E 005°19'0 0.0
2017-Apr-19 19:29N 60°24' E 005°19'0 0.0
2017-Apr-19 18:59N 60°24' E 005°19'0 0.0
2017-Apr-19 18:30N 60°24' E 005°19'0 0.0
2017-Apr-19 18:00N 60°24' E 005°19'0 0.0
2017-Apr-19 17:30N 60°24' E 005°19'0 0.0
2017-Apr-19 16:58N 60°24' E 005°19'0 0.0
2017-Apr-19 16:28N 60°24' E 005°19'0 0.0
2017-Apr-19 15:58N 60°24' E 005°19'0 0.0
2017-Apr-19 15:29N 60°24' E 005°19'0 0.0
2017-Apr-19 14:59N 60°24' E 005°19'0 0.0
2017-Apr-19 14:29N 60°24' E 005°19'0 0.0
2017-Apr-19 14:00N 60°24' E 005°19'0 0.0
2017-Apr-19 13:30N 60°24' E 005°19'0 0.0
2017-Apr-19 13:00N 60°24' E 005°19'0 0.0
2017-Apr-19 12:28N 60°24' E 005°19'0 0.0
2017-Apr-19 11:58N 60°24' E 005°19'0 0.0
2017-Apr-19 11:28N 60°24' E 005°19'0 0.0
2017-Apr-19 10:53N 60°24' E 005°19'0 0.0
2017-Apr-19 10:29N 60°24' E 005°19'0 0.0
2017-Apr-19 09:59N 60°24' E 005°19'0 0.0
2017-Apr-19 09:30N 60°24' E 005°19'0 0.0
2017-Apr-19 09:00N 60°24' E 005°19'0 0.0
2017-Apr-19 08:30N 60°24' E 005°19'0 0.0
2017-Apr-19 07:58N 60°24' E 005°19'0 0.0
2017-Apr-19 07:28N 60°24' E 005°19'0 0.0
2017-Apr-19 06:58N 60°24' E 005°19'0 0.0
2017-Apr-19 06:29N 60°24' E 005°19'0 0.0
2017-Apr-19 05:59N 60°24' E 005°19'0 0.0
2017-Apr-19 05:29N 60°24' E 005°19'0 0.0
2017-Apr-19 05:00N 60°24' E 005°19'0 0.0
2017-Apr-19 04:30N 60°24' E 005°19'0 0.0
2017-Apr-19 04:00N 60°24' E 005°19'0 0.0
2017-Apr-19 03:28N 60°24' E 005°19'0 0.0
2017-Apr-19 02:58N 60°24' E 005°19'0 0.0
2017-Apr-19 02:28N 60°24' E 005°19'0 0.0
2017-Apr-19 01:59N 60°24' E 005°19'0 0.0
2017-Apr-19 01:29N 60°24' E 005°19'0 0.0
2017-Apr-19 00:59N 60°24' E 005°19'0 0.0
2017-Apr-19 00:30N 60°24' E 005°19'0 0.0
2017-Apr-19 00:00N 60°24' E 005°19'0 0.0
2017-Apr-18 23:30N 60°24' E 005°19'0 0.0
2017-Apr-18 22:58N 60°24' E 005°19'0 0.0
2017-Apr-18 22:28N 60°24' E 005°19'0 0.0
2017-Apr-18 21:58N 60°24' E 005°19'0 0.0
2017-Apr-18 21:29N 60°24' E 005°19'0 0.0
2017-Apr-18 20:59N 60°24' E 005°19'0 0.0
2017-Apr-18 20:26N 60°24' E 005°19'0 0.0
2017-Apr-18 20:00N 60°24' E 005°19'0 0.0
2017-Apr-18 19:30N 60°24' E 005°19'0 0.0
2017-Apr-18 19:00N 60°24' E 005°19'0 0.0
2017-Apr-18 18:28N 60°24' E 005°19'0 0.0
2017-Apr-18 17:58N 60°24' E 005°19'0 0.0
2017-Apr-18 17:28N 60°24' E 005°19'0 0.0
2017-Apr-18 16:59N 60°24' E 005°19'0 0.0
2017-Apr-18 16:29N 60°24' E 005°19'0 0.0
2017-Apr-18 15:59N 60°24' E 005°19'0 0.0
2017-Apr-18 15:30N 60°24' E 005°19'0 0.0
2017-Apr-18 15:00N 60°24' E 005°19'0 0.0
2017-Apr-18 14:30N 60°24' E 005°19'0 0.0
2017-Apr-18 13:28N 60°24' E 005°19'0 0.0
2017-Apr-18 12:58N 60°24' E 005°19'0 0.0
2017-Apr-18 12:29N 60°24' E 005°19'0 0.0
2017-Apr-18 11:59N 60°24' E 005°19'0 0.0
2017-Apr-18 11:29N 60°24' E 005°19'0 0.0
2017-Apr-18 11:00N 60°24' E 005°19'0 0.0
2017-Apr-18 10:30N 60°24' E 005°19'0 0.0
2017-Apr-18 10:00N 60°24' E 005°19'0 0.0
2017-Apr-18 09:28N 60°24' E 005°19'0 0.0
2017-Apr-18 08:58N 60°24' E 005°19'0 0.0
2017-Apr-18 08:28N 60°24' E 005°19'0 0.0
2017-Apr-18 07:59N 60°24' E 005°19'0 0.0
2017-Apr-18 07:29N 60°24' E 005°19'0 0.0
2017-Apr-18 06:59N 60°24' E 005°19'0 0.0
2017-Apr-18 06:30N 60°24' E 005°19'0 0.0
2017-Apr-18 06:00N 60°24' E 005°19'0 0.0
2017-Apr-18 05:24N 60°24' E 005°19'0 0.0
2017-Apr-18 04:58N 60°24' E 005°19'0 0.0
2017-Apr-18 04:28N 60°24' E 005°19'0 0.0
2017-Apr-18 03:58N 60°24' E 005°19'0 0.0
2017-Apr-18 03:29N 60°24' E 005°19'0 0.0
2017-Apr-18 02:59N 60°24' E 005°19'0 0.0
2017-Apr-18 02:29N 60°24' E 005°19'0 0.0
2017-Apr-18 02:00N 60°24' E 005°19'0 0.0
2017-Apr-18 01:30N 60°24' E 005°19'0 0.0
2017-Apr-18 01:00N 60°24' E 005°19'0 0.0
2017-Apr-18 00:28N 60°24' E 005°19'0 0.0
2017-Apr-17 23:58N 60°24' E 005°19'0 0.0
2017-Apr-17 23:28N 60°24' E 005°19'0 0.0
2017-Apr-17 22:59N 60°24' E 005°19'0 0.0
2017-Apr-17 22:29N 60°24' E 005°19'0 0.0
2017-Apr-17 21:59N 60°24' E 005°19'0 0.0
2017-Apr-17 21:30N 60°24' E 005°19'0 0.0
2017-Apr-17 21:00N 60°24' E 005°19'0 0.0
2017-Apr-17 20:30N 60°24' E 005°19'0 0.0
2017-Apr-17 19:58N 60°24' E 005°19'0 0.0
2017-Apr-17 19:28N 60°24' E 005°19'0 0.0
2017-Apr-17 18:58N 60°24' E 005°19'0 0.0
2017-Apr-17 18:29N 60°24' E 005°19'0 0.0
2017-Apr-17 17:59N 60°24' E 005°19'0 0.0
2017-Apr-17 17:29N 60°24' E 005°19'0 0.0
2017-Apr-17 17:00N 60°24' E 005°19'0 0.0
2017-Apr-17 16:30N 60°24' E 005°19'0 0.0
2017-Apr-17 16:00N 60°24' E 005°19'0 0.0
2017-Apr-17 15:28N 60°24' E 005°19'0 0.0
2017-Apr-17 14:58N 60°24' E 005°19'0 0.0
2017-Apr-17 14:28N 60°24' E 005°19'0 0.0
2017-Apr-17 13:29N 60°24' E 005°19'0 0.0
2017-Apr-17 12:59N 60°24' E 005°19'0 0.0
2017-Apr-17 12:30N 60°24' E 005°19'0 0.0
2017-Apr-17 11:57N 60°24' E 005°19'0 0.0
2017-Apr-17 11:30N 60°24' E 005°19'0 0.0
2017-Apr-17 10:58N 60°24' E 005°19'0 0.0
2017-Apr-17 10:28N 60°24' E 005°19'0 0.0
2017-Apr-17 09:58N 60°24' E 005°19'0 0.0
2017-Apr-17 09:29N 60°24' E 005°19'0 0.0
2017-Apr-17 08:59N 60°24' E 005°19'0 0.0
2017-Apr-17 08:29N 60°24' E 005°19'0 0.0
2017-Apr-17 08:00N 60°24' E 005°19'0 0.0
2017-Apr-17 07:30N 60°24' E 005°19'0 0.0
2017-Apr-17 07:00N 60°24' E 005°19'0 0.0
2017-Apr-17 06:28N 60°24' E 005°19'0 0.0
2017-Apr-17 05:58N 60°24' E 005°19'0 0.0
2017-Apr-17 05:28N 60°24' E 005°19'0 0.0
2017-Apr-17 04:59N 60°24' E 005°19'0 0.0
2017-Apr-17 04:29N 60°24' E 005°19'0 0.0
2017-Apr-17 03:59N 60°24' E 005°19'0 0.0
2017-Apr-17 03:30N 60°24' E 005°19'0 0.0
2017-Apr-17 03:00N 60°24' E 005°19'0 0.0
2017-Apr-17 02:30N 60°24' E 005°19'0 0.0
2017-Apr-17 01:58N 60°24' E 005°19'0 0.0
2017-Apr-17 01:28N 60°24' E 005°19'0 0.0
2017-Apr-17 00:58N 60°24' E 005°19'0 0.0
2017-Apr-17 00:29N 60°24' E 005°19'0 0.0
2017-Apr-16 23:59N 60°24' E 005°19'0 0.0
2017-Apr-16 23:29N 60°24' E 005°19'0 0.0
2017-Apr-16 23:00N 60°24' E 005°19'0 0.0
2017-Apr-16 22:27N 60°24' E 005°19'0 0.0
2017-Apr-16 22:00N 60°24' E 005°19'0 0.0
2017-Apr-16 21:28N 60°24' E 005°19'0 0.0
2017-Apr-16 20:58N 60°24' E 005°19'0 0.0
2017-Apr-16 20:26N 60°24' E 005°19'0 0.0
2017-Apr-16 19:59N 60°24' E 005°19'0 0.0
2017-Apr-16 19:29N 60°24' E 005°19'0 0.0
2017-Apr-16 18:59N 60°24' E 005°19'0 0.0
2017-Apr-16 18:30N 60°24' E 005°19'0 0.0
2017-Apr-16 18:00N 60°24' E 005°19'0 0.0
2017-Apr-16 17:31N 60°24' E 005°19'0 0.0
2017-Apr-16 16:58N 60°24' E 005°19'0 0.0
2017-Apr-16 16:28N 60°24' E 005°19'0 0.0
2017-Apr-16 15:59N 60°24' E 005°19'0 0.0
2017-Apr-16 15:29N 60°24' E 005°19'0 0.0
2017-Apr-16 14:59N 60°24' E 005°19'0 0.0
2017-Apr-16 14:00N 60°24' E 005°19'0 0.0
2017-Apr-16 13:30N 60°24' E 005°19'0 0.0
2017-Apr-16 13:01N 60°24' E 005°19'0 0.0
2017-Apr-16 12:28N 60°24' E 005°19'0 0.0
2017-Apr-16 11:58N 60°24' E 005°19'  

Dump ship's entire track history